createdAt,value
2022-10-05T00:00:50.246Z,12.30
2022-10-05T00:04:54.830Z,12.30
2022-10-05T00:08:56.247Z,12.20
2022-10-05T00:12:57.603Z,12.20
2022-10-05T00:17:01.195Z,12.10
2022-10-05T00:21:06.261Z,12.10
2022-10-05T00:25:20.366Z,12.10
2022-10-05T00:29:23.147Z,12.00
2022-10-05T00:33:25.141Z,12.00
2022-10-05T00:37:26.235Z,12.00
2022-10-05T00:41:52.270Z,12.10
2022-10-05T00:46:09.285Z,12.10
2022-10-05T00:50:17.461Z,12.20
2022-10-05T00:54:25.379Z,12.30
2022-10-05T00:58:47.389Z,12.40
2022-10-05T01:02:58.382Z,12.40
2022-10-05T01:07:31.598Z,12.30
2022-10-05T01:11:46.038Z,12.30
2022-10-05T01:16:06.304Z,12.20
2022-10-05T01:20:41.592Z,12.10
2022-10-05T01:25:01.739Z,11.90
2022-10-05T01:29:09.595Z,11.80
2022-10-05T01:33:31.174Z,11.90
2022-10-05T01:37:51.084Z,11.90
2022-10-05T01:42:11.458Z,11.80
2022-10-05T01:46:21.954Z,11.70
2022-10-05T01:50:33.271Z,11.70
2022-10-05T01:54:57.920Z,11.80
2022-10-05T01:59:14.243Z,11.80
2022-10-05T02:03:21.986Z,11.80
2022-10-05T02:07:26.263Z,11.90
2022-10-05T02:11:27.463Z,12.00
2022-10-05T02:15:35.385Z,12.00
2022-10-05T02:19:46.524Z,11.90
2022-10-05T02:23:51.914Z,11.90
2022-10-05T02:28:06.125Z,11.80
2022-10-05T02:32:16.638Z,11.70
2022-10-05T02:36:21.532Z,11.70
2022-10-05T02:40:49.752Z,11.70
2022-10-05T02:45:11.837Z,11.60
2022-10-05T02:49:33.938Z,11.50
2022-10-05T02:53:41.929Z,11.40
2022-10-05T02:57:55.982Z,11.40
2022-10-05T03:02:10.389Z,11.40
2022-10-05T03:06:15.438Z,11.30
2022-10-05T03:10:29.830Z,11.30
2022-10-05T03:14:40.926Z,11.40
2022-10-05T03:19:05.297Z,11.30
2022-10-05T03:23:10.288Z,11.20
2022-10-05T03:27:24.354Z,11.20
2022-10-05T03:31:44.252Z,11.10
2022-10-05T03:35:58.287Z,11.00
2022-10-05T03:40:08.881Z,11.00
2022-10-05T03:44:33.941Z,11.00
2022-10-05T03:48:56.665Z,10.90
2022-10-05T03:53:01.670Z,10.70
2022-10-05T03:57:09.685Z,10.70
2022-10-05T04:01:14.612Z,10.80
2022-10-05T04:05:22.401Z,10.90
2022-10-05T04:09:36.422Z,10.90
2022-10-05T04:13:44.063Z,10.90
2022-10-05T04:17:49.016Z,11.00
2022-10-05T04:22:10.656Z,11.00
2022-10-05T04:26:15.567Z,11.10
2022-10-05T04:30:21.591Z,11.20
2022-10-05T04:34:49.290Z,11.30
2022-10-05T04:38:54.278Z,11.40
2022-10-05T04:42:59.180Z,11.40
2022-10-05T04:47:24.086Z,11.50
2022-10-05T04:51:47.731Z,11.50
2022-10-05T04:56:10.096Z,11.50
2022-10-05T05:00:26.351Z,11.60
2022-10-05T05:04:36.870Z,11.70
2022-10-05T05:09:01.845Z,11.60
2022-10-05T05:13:25.187Z,11.60
2022-10-05T05:17:51.491Z,11.60
2022-10-05T05:22:05.629Z,11.40
2022-10-05T05:26:32.763Z,11.50
2022-10-05T05:30:44.346Z,11.60
2022-10-05T05:35:04.407Z,11.80
2022-10-05T05:39:30.833Z,11.90
2022-10-05T05:43:35.734Z,11.80
2022-10-05T05:47:40.345Z,11.70
2022-10-05T05:51:51.359Z,12.00
2022-10-05T05:55:58.273Z,12.00
2022-10-05T06:00:15.188Z,12.10
2022-10-05T06:04:20.177Z,12.00
2022-10-05T06:08:37.040Z,12.20
2022-10-05T06:12:42.039Z,12.10
2022-10-05T06:16:53.272Z,11.80
2022-10-05T06:20:58.268Z,11.90
2022-10-05T06:25:15.628Z,11.90
2022-10-05T06:29:20.682Z,12.10
2022-10-05T06:33:40.321Z,12.00
2022-10-05T06:37:57.423Z,12.20
2022-10-05T06:42:14.705Z,12.30
2022-10-05T06:46:42.419Z,12.30
2022-10-05T06:50:59.739Z,12.40
2022-10-05T06:55:14.423Z,12.40
2022-10-05T06:59:19.476Z,12.70
2022-10-05T07:03:27.478Z,12.60
2022-10-05T07:07:44.255Z,12.60
2022-10-05T07:11:56.528Z,12.60
2022-10-05T07:16:22.016Z,12.90
2022-10-05T07:20:30.210Z,12.90
2022-10-05T07:24:34.098Z,12.80
2022-10-05T07:28:39.123Z,13.00
2022-10-05T07:32:47.192Z,13.20
2022-10-05T07:37:19.607Z,13.30
2022-10-05T07:41:28.458Z,13.60
2022-10-05T07:45:42.746Z,13.70
2022-10-05T07:50:04.731Z,13.70
2022-10-05T07:54:19.041Z,13.90
2022-10-05T07:58:29.745Z,14.20
2022-10-05T08:02:44.102Z,14.30
2022-10-05T08:06:52.162Z,14.70
2022-10-05T08:11:03.217Z,15.00
2022-10-05T08:15:17.253Z,14.70
2022-10-05T08:19:28.258Z,14.60
2022-10-05T08:23:48.308Z,14.70
2022-10-05T08:28:11.695Z,15.40
2022-10-05T08:32:26.200Z,15.60
2022-10-05T08:36:31.168Z,16.00
2022-10-05T08:40:51.372Z,16.60
2022-10-05T08:45:16.026Z,17.40
2022-10-05T08:49:39.248Z,18.40
2022-10-05T08:53:53.233Z,18.80
2022-10-05T08:58:07.419Z,19.40
2022-10-05T09:02:15.709Z,19.70
2022-10-05T09:06:45.021Z,19.50
2022-10-05T09:11:13.077Z,20.00
2022-10-05T09:15:26.902Z,20.40
2022-10-05T09:19:43.734Z,20.80
2022-10-05T09:23:49.245Z,20.60
2022-10-05T09:28:03.643Z,20.60
2022-10-05T09:32:24.443Z,20.90
2022-10-05T09:36:33.447Z,20.90
2022-10-05T09:40:46.367Z,21.20
2022-10-05T09:44:57.471Z,21.40
2022-10-05T09:49:11.490Z,21.80
2022-10-05T09:53:40.354Z,21.40
2022-10-05T09:58:04.931Z,22.00
2022-10-05T10:02:16.083Z,21.80
2022-10-05T10:06:28.119Z,21.80
2022-10-05T10:10:52.190Z,22.20
2022-10-05T10:15:03.374Z,22.00
2022-10-05T10:19:23.479Z,22.50
2022-10-05T10:23:37.754Z,22.00
2022-10-05T10:27:52.375Z,22.30
2022-10-05T10:32:04.397Z,22.30
2022-10-05T10:36:15.554Z,22.20
2022-10-05T10:40:47.801Z,22.70
2022-10-05T10:45:22.113Z,22.80
2022-10-05T10:50:04.322Z,23.00
2022-10-05T10:54:42.786Z,23.60
2022-10-05T10:58:50.783Z,23.90
2022-10-05T11:03:17.072Z,23.40
2022-10-05T11:07:45.676Z,23.80
2022-10-05T11:12:09.792Z,23.40
2022-10-05T11:16:40.582Z,22.50
2022-10-05T11:20:55.502Z,23.10
2022-10-05T11:25:34.362Z,22.50
2022-10-05T11:30:07.989Z,22.70
2022-10-05T11:34:15.488Z,22.40
2022-10-05T11:38:32.901Z,22.10
2022-10-05T11:42:41.175Z,22.00
2022-10-05T11:47:04.366Z,22.20
2022-10-05T11:51:25.206Z,21.60
2022-10-05T11:55:37.607Z,21.50
2022-10-05T11:59:54.942Z,21.90
2022-10-05T12:04:06.058Z,22.00
2022-10-05T12:08:20.085Z,22.10
2022-10-05T12:12:26.288Z,22.50
2022-10-05T12:16:41.120Z,22.50
2022-10-05T12:21:06.923Z,22.50
2022-10-05T12:25:18.367Z,23.00
2022-10-05T12:29:23.274Z,22.60
2022-10-05T12:33:28.265Z,22.30
2022-10-05T12:37:50.015Z,22.90
2022-10-05T12:42:01.576Z,23.10
2022-10-05T12:46:32.296Z,23.50
2022-10-05T12:50:40.214Z,23.30
2022-10-05T12:55:03.643Z,23.40
2022-10-05T12:59:23.419Z,23.40
2022-10-05T13:03:28.017Z,23.10
2022-10-05T13:08:01.926Z,23.10
2022-10-05T13:12:09.871Z,22.90
2022-10-05T13:16:17.993Z,22.90
2022-10-05T13:20:27.518Z,23.00
2022-10-05T13:24:32.445Z,23.10
2022-10-05T13:28:46.355Z,23.00
2022-10-05T13:33:09.199Z,22.90
2022-10-05T13:37:31.170Z,22.60
2022-10-05T13:42:11.286Z,22.90
2022-10-05T13:46:34.725Z,23.00
2022-10-05T13:50:58.116Z,23.20
2022-10-05T13:55:30.934Z,23.10
2022-10-05T13:59:39.285Z,22.90
2022-10-05T14:03:40.571Z,23.10
2022-10-05T14:07:51.307Z,23.20
2022-10-05T14:12:08.375Z,23.50
2022-10-05T14:16:24.648Z,23.50
2022-10-05T14:20:30.326Z,23.10
2022-10-05T14:24:50.214Z,23.40
2022-10-05T14:28:38.886Z,23.10
2022-10-05T14:32:49.954Z,22.90
2022-10-05T14:37:00.304Z,23.00
2022-10-05T14:41:04.411Z,23.20
2022-10-05T14:45:14.431Z,23.10
2022-10-05T14:49:25.256Z,23.10
2022-10-05T14:53:42.961Z,23.20
2022-10-05T14:57:59.697Z,23.00
2022-10-05T15:02:23.340Z,22.90
2022-10-05T15:06:51.138Z,22.90
2022-10-05T15:10:58.371Z,22.90
2022-10-05T15:15:06.478Z,23.00
2022-10-05T15:19:33.796Z,23.20
2022-10-05T15:23:42.139Z,22.80
2022-10-05T15:27:50.246Z,22.80
2022-10-05T15:31:58.316Z,22.80
2022-10-05T15:36:15.368Z,22.60
2022-10-05T15:40:20.747Z,22.50
2022-10-05T15:44:48.404Z,22.60
2022-10-05T15:49:10.324Z,22.60
2022-10-05T15:53:27.382Z,22.50
2022-10-05T15:57:56.615Z,22.40
2022-10-05T16:02:01.505Z,22.20
2022-10-05T16:06:37.140Z,22.20
2022-10-05T16:10:42.119Z,22.00
2022-10-05T16:15:05.735Z,21.90
2022-10-05T16:19:22.373Z,21.80
2022-10-05T16:23:43.805Z,21.80
2022-10-05T16:28:05.234Z,21.80
2022-10-05T16:32:18.053Z,21.80
2022-10-05T16:36:44.170Z,21.80
2022-10-05T16:41:01.770Z,21.60
2022-10-05T16:45:08.285Z,21.60
2022-10-05T16:49:16.227Z,21.70
2022-10-05T16:53:24.193Z,21.60
2022-10-05T16:57:34.884Z,21.50
2022-10-05T17:01:45.972Z,21.70
2022-10-05T17:05:56.985Z,21.60
2022-10-05T17:10:22.952Z,21.50
2022-10-05T17:14:44.828Z,21.50
2022-10-05T17:19:17.899Z,21.20
2022-10-05T17:23:41.281Z,21.20
2022-10-05T17:27:52.325Z,20.90
2022-10-05T17:32:09.453Z,20.80
2022-10-05T17:36:14.458Z,20.70
2022-10-05T17:40:36.444Z,20.60
2022-10-05T17:44:37.937Z,20.30
2022-10-05T17:48:55.167Z,20.00
2022-10-05T17:53:39.537Z,19.80
2022-10-05T17:57:41.198Z,19.70
2022-10-05T18:01:45.171Z,19.70
2022-10-05T18:05:50.881Z,19.90
2022-10-05T18:09:58.544Z,20.00
2022-10-05T18:14:18.856Z,20.10
2022-10-05T18:18:44.592Z,20.10
2022-10-05T18:22:46.665Z,20.10
2022-10-05T18:27:03.755Z,19.80
2022-10-05T18:31:25.752Z,19.80
2022-10-05T18:35:57.896Z,19.80
2022-10-05T18:40:09.093Z,20.00
2022-10-05T18:44:16.835Z,20.20
2022-10-05T18:48:27.923Z,19.60
2022-10-05T18:52:39.089Z,19.40
2022-10-05T18:56:47.357Z,19.50
2022-10-05T19:01:07.108Z,19.50
2022-10-05T19:05:48.657Z,19.50
2022-10-05T19:10:03.413Z,19.20
2022-10-05T19:14:18.009Z,19.10
2022-10-05T19:18:22.929Z,19.10
2022-10-05T19:22:42.767Z,19.20
2022-10-05T19:26:56.919Z,19.00
2022-10-05T19:31:14.191Z,19.00
2022-10-05T19:35:28.220Z,18.90
2022-10-05T19:39:42.282Z,18.90
2022-10-05T19:43:52.888Z,19.10
2022-10-05T19:48:19.385Z,19.10
2022-10-05T19:52:30.528Z,19.10
2022-10-05T19:56:39.381Z,19.10
2022-10-05T20:00:41.698Z,19.00
2022-10-05T20:04:47.494Z,19.00
2022-10-05T20:08:51.187Z,19.10
2022-10-05T20:12:56.787Z,19.00
2022-10-05T20:17:46.223Z,18.90
2022-10-05T20:21:57.899Z,18.90
2022-10-05T20:26:17.862Z,18.90
2022-10-05T20:30:21.793Z,18.90
2022-10-05T20:34:23.590Z,18.80
2022-10-05T20:38:25.047Z,18.70
2022-10-05T20:42:26.441Z,18.60
2022-10-05T20:46:29.462Z,18.70
2022-10-05T20:50:32.113Z,18.70
2022-10-05T20:54:33.350Z,18.80
2022-10-05T20:58:34.598Z,18.70
2022-10-05T21:02:36.470Z,18.60
2022-10-05T21:06:37.555Z,18.60
2022-10-05T21:10:39.451Z,18.60
2022-10-05T21:14:40.641Z,18.60
2022-10-05T21:18:43.741Z,18.70
2022-10-05T21:22:44.922Z,18.70
2022-10-05T21:26:46.133Z,18.70
2022-10-05T21:30:47.292Z,18.70
2022-10-05T21:34:48.393Z,18.50
2022-10-05T21:38:50.679Z,18.50
2022-10-05T21:42:51.802Z,18.40
2022-10-05T21:46:54.481Z,18.30
2022-10-05T21:50:55.589Z,18.40
2022-10-05T21:54:56.857Z,18.20
2022-10-05T21:58:58.971Z,18.10
2022-10-05T22:03:00.158Z,18.30
2022-10-05T22:07:01.337Z,18.30
2022-10-05T22:11:11.386Z,18.10
2022-10-05T22:15:13.174Z,17.80
2022-10-05T22:19:17.169Z,17.90
2022-10-05T22:23:18.667Z,17.80
2022-10-05T22:27:22.138Z,17.80
2022-10-05T22:31:23.271Z,17.70
2022-10-05T22:35:24.966Z,17.80
2022-10-05T22:39:26.358Z,17.70
2022-10-05T22:43:27.526Z,17.80
2022-10-05T22:47:28.706Z,17.80
2022-10-05T22:51:29.810Z,17.90
2022-10-05T22:55:30.910Z,17.80
2022-10-05T22:59:32.095Z,17.90
2022-10-05T23:03:34.199Z,17.90
2022-10-05T23:07:36.684Z,17.90
2022-10-05T23:11:37.867Z,17.70
2022-10-05T23:15:38.987Z,17.20
2022-10-05T23:19:40.170Z,17.50
2022-10-05T23:23:45.463Z,17.60
2022-10-05T23:27:46.570Z,17.60
2022-10-05T23:31:47.866Z,17.50
2022-10-05T23:36:04.694Z,17.20
2022-10-05T23:40:08.268Z,16.90
2022-10-05T23:44:09.560Z,17.00
2022-10-05T23:52:09.116Z,16.90
2022-10-05T23:56:11.322Z,17.20
